TimeEST,TemperatureF,Dew PointF,Humidity,Sea Level PressureIn,VisibilityMPH,Wind Direction,Wind SpeedMPH,Gust SpeedMPH,PrecipitationIn,Events,Conditions,WindDirDegrees,DateUTC
12:53 AM,75.9,72.0,87,30.03,10.0,SSE,5.8,-,N/A,,Partly Cloudy,150,2012-12-09 05:53:00
1:24 AM,75.2,71.6,89,30.02,10.0,SE,3.5,-,N/A,,Mostly Cloudy,130,2012-12-09 06:24:00
1:39 AM,75.2,71.6,89,30.02,10.0,SE,3.5,-,N/A,,Mostly Cloudy,140,2012-12-09 06:39:00
1:53 AM,75.9,72.0,87,30.03,10.0,Calm,Calm,-,N/A,,Mostly Cloudy,0,2012-12-09 06:53:00
2:08 AM,75.2,71.6,89,30.02,10.0,Calm,Calm,-,N/A,,Mostly Cloudy,0,2012-12-09 07:08:00
2:53 AM,73.9,71.1,91,30.01,10.0,Calm,Calm,-,N/A,,Mostly Cloudy,0,2012-12-09 07:53:00
3:00 AM,73.4,71.6,94,30.01,10.0,Calm,Calm,-,N/A,,Overcast,0,2012-12-09 08:00:00
3:25 AM,73.4,71.6,94,30.01,10.0,Calm,Calm,-,N/A,,Scattered Clouds,0,2012-12-09 08:25:00
3:53 AM,73.9,72.0,93,30.02,10.0,Calm,Calm,-,N/A,,Scattered Clouds,0,2012-12-09 08:53:00
4:00 AM,73.4,71.6,94,30.01,10.0,Calm,Calm,-,N/A,,Overcast,0,2012-12-09 09:00:00
4:35 AM,73.4,71.6,94,30.02,10.0,Calm,Calm,-,N/A,,Mostly Cloudy,0,2012-12-09 09:35:00
4:53 AM,73.0,71.1,93,30.03,10.0,NNW,4.6,-,N/A,,Partly Cloudy,330,2012-12-09 09:53:00
5:21 AM,73.4,69.8,88,30.02,10.0,Calm,Calm,-,N/A,,Mostly Cloudy,0,2012-12-09 10:21:00
5:53 AM,72.0,70.0,93,30.04,10.0,NW,3.5,-,N/A,,Mostly Cloudy,310,2012-12-09 10:53:00
6:26 AM,71.6,69.8,94,30.04,10.0,Calm,Calm,-,0.00,,Partly Cloudy,0,2012-12-09 11:26:00
6:53 AM,71.1,69.1,93,30.06,10.0,Calm,Calm,-,0.00,,Clear,0,2012-12-09 11:53:00
7:53 AM,72.0,70.0,93,30.07,10.0,Calm,Calm,-,N/A,,Mostly Cloudy,0,2012-12-09 12:53:00
8:01 AM,71.6,69.8,94,30.07,10.0,Calm,Calm,-,N/A,,Scattered Clouds,0,2012-12-09 13:01:00
8:53 AM,75.0,71.1,87,30.09,10.0,Calm,Calm,-,N/A,,Scattered Clouds,0,2012-12-09 13:53:00
9:53 AM,75.9,72.0,87,30.11,10.0,Calm,Calm,-,N/A,,Scattered Clouds,0,2012-12-09 14:53:00
10:53 AM,82.0,72.0,71,30.09,10.0,Calm,Calm,-,N/A,,Scattered Clouds,0,2012-12-09 15:53:00
11:53 AM,81.0,71.1,72,30.07,10.0,Calm,Calm,-,N/A,,Scattered Clouds,0,2012-12-09 16:53:00
12:53 PM,82.0,72.0,71,30.04,10.0,Variable,3.5,-,0.00,,Scattered Clouds,0,2012-12-09 17:53:00
1:53 PM,82.9,72.0,69,30.01,10.0,SSE,4.6,-,N/A,,Scattered Clouds,150,2012-12-09 18:53:00
2:53 PM,82.9,71.1,67,30.01,10.0,SSE,6.9,-,N/A,,Clear,150,2012-12-09 19:53:00
3:53 PM,82.9,71.1,67,30.01,10.0,SSE,9.2,-,N/A,,Clear,150,2012-12-09 20:53:00
4:53 PM,81.0,72.0,74,30.01,10.0,SSE,4.6,-,N/A,,Clear,150,2012-12-09 21:53:00
5:53 PM,79.0,73.0,82,30.02,10.0,SE,6.9,-,N/A,,Partly Cloudy,140,2012-12-09 22:53:00
6:53 PM,77.0,73.0,88,30.04,10.0,SE,5.8,-,N/A,,Clear,140,2012-12-09 23:53:00
7:53 PM,77.0,73.0,88,30.04,10.0,Calm,Calm,-,N/A,,Clear,0,2012-12-10 00:53:00
8:53 PM,75.9,73.0,91,30.05,10.0,Calm,Calm,-,N/A,,Clear,0,2012-12-10 01:53:00
9:53 PM,75.9,73.0,91,30.05,10.0,SSE,3.5,-,N/A,,Partly Cloudy,150,2012-12-10 02:53:00
10:53 PM,75.0,73.0,94,30.05,10.0,South,3.5,-,N/A,,Clear,170,2012-12-10 03:53:00
11:53 PM,73.9,72.0,93,30.04,10.0,Calm,Calm,-,N/A,,Partly Cloudy,0,2012-12-10 04:53:00